Time;durP1;ratioP1;P1;durP2;ratioP2;P2;SDS_P1;SDS_P2;PMS_P1;PMS_P2;Temp;Humidity;BMP_temperature;BMP_pressure;BME280_temperature;BME280_humidity;BME280_pressure;Samples;Min_cycle;Max_cycle;Signal;HPM_P1;HPM_P2
2022/03/12 00:00:38;;;;;;;21.48;13.40;;;7.40;48.90;;;;;;5032906;28;20025;-21
2022/03/12 00:03:05;;;;;;;15.52;8.27;;;7.40;48.80;;;;;;5033224;28;20428;-21
2022/03/12 00:05:35;;;;;;;14.95;8.93;;;7.30;49.00;;;;;;5031602;28;20033;-21
2022/03/12 00:08:05;;;;;;;11.40;7.15;;;7.30;48.80;;;;;;5032870;28;20477;-21
2022/03/12 00:10:34;;;;;;;11.35;6.10;;;7.30;48.90;;;;;;5035187;28;20025;-21
2022/03/12 00:13:01;;;;;;;11.95;6.95;;;7.30;48.70;;;;;;5036683;28;20034;-21
2022/03/12 00:15:31;;;;;;;11.38;6.43;;;7.30;49.00;;;;;;5035685;28;20435;-21
2022/03/12 00:17:57;;;;;;;16.60;8.70;;;7.30;48.70;;;;;;5036624;28;20029;-21
2022/03/12 00:20:23;;;;;;;24.30;15.13;;;7.30;48.80;;;;;;5036191;28;20049;-21
2022/03/12 00:22:50;;;;;;;23.67;12.25;;;7.20;49.00;;;;;;5036803;28;20060;-21
2022/03/12 00:25:24;;;;;;;14.18;8.52;;;7.20;49.60;;;;;;5036895;28;20116;-23
2022/03/12 00:27:51;;;;;;;25.80;14.65;;;7.20;49.10;;;;;;5037262;28;20038;-22
2022/03/12 00:30:21;;;;;;;19.73;11.20;;;7.20;49.90;;;;;;5036425;28;20536;-21
2022/03/12 00:32:48;;;;;;;24.85;13.82;;;7.20;49.80;;;;;;5036647;28;20022;-22
2022/03/12 00:35:16;;;;;;;26.13;14.38;;;7.20;50.20;;;;;;5036791;28;20026;-21
2022/03/12 00:37:43;;;;;;;26.65;14.80;;;7.10;49.90;;;;;;5036283;28;20025;-21
2022/03/12 00:40:10;;;;;;;31.65;17.83;;;7.10;49.40;;;;;;5036137;28;20121;-21
2022/03/12 00:42:36;;;;;;;33.83;18.45;;;7.10;49.40;;;;;;5036254;28;20599;-21
2022/03/12 00:45:03;;;;;;;31.83;17.67;;;7.00;49.30;;;;;;5036120;28;20120;-21
2022/03/12 00:47:28;;;;;;;36.78;20.42;;;7.00;49.40;;;;;;5036005;28;20068;-23
2022/03/12 00:49:55;;;;;;;32.83;18.02;;;7.00;49.30;;;;;;5036292;28;20060;-23
2022/03/12 00:52:21;;;;;;;32.47;18.67;;;7.00;49.60;;;;;;5036183;28;20053;-22
2022/03/12 00:54:47;;;;;;;36.42;20.65;;;7.00;49.90;;;;;;5035759;28;20029;-22
2022/03/12 00:57:13;;;;;;;30.77;17.45;;;7.00;49.90;;;;;;5036208;28;20135;-21
2022/03/12 00:59:40;;;;;;;31.55;17.83;;;6.90;50.00;;;;;;5036122;28;20025;-21
2022/03/12 01:02:10;;;;;;;34.67;19.33;;;6.90;49.90;;;;;;5036095;28;20025;-21
2022/03/12 01:04:37;;;;;;;29.55;16.60;;;6.90;50.00;;;;;;5035849;28;20033;-21
2022/03/12 01:07:04;;;;;;;28.67;17.10;;;6.90;49.60;;;;;;5036225;28;20036;-21
2022/03/12 01:09:30;;;;;;;31.80;17.73;;;6.90;49.50;;;;;;5035857;28;20112;-21
2022/03/12 01:11:56;;;;;;;31.00;17.00;;;6.80;49.80;;;;;;5035803;28;20105;-21
2022/03/12 01:14:22;;;;;;;34.00;17.67;;;6.80;49.60;;;;;;5035593;28;20112;-23
2022/03/12 01:16:48;;;;;;;27.73;15.00;;;6.80;49.60;;;;;;5036231;28;20496;-22
2022/03/12 01:19:15;;;;;;;26.80;15.52;;;6.70;49.40;;;;;;5035503;28;20476;-21
2022/03/12 01:21:41;;;;;;;32.20;17.75;;;6.70;49.30;;;;;;5034457;28;20037;-21
2022/03/12 01:24:08;;;;;;;27.45;16.85;;;6.70;49.40;;;;;;5035697;28;20059;-21
2022/03/12 01:26:35;;;;;;;29.15;16.27;;;6.60;49.10;;;;;;5035034;28;20025;-21
2022/03/12 01:29:02;;;;;;;29.05;17.38;;;6.60;49.00;;;;;;5035574;28;20108;-22
2022/03/12 01:31:28;;;;;;;25.35;15.38;;;6.50;48.70;;;;;;5035346;28;20032;-21
2022/03/12 01:33:54;;;;;;;29.95;17.05;;;6.50;48.90;;;;;;5036299;28;20090;-21
2022/03/12 01:36:20;;;;;;;24.05;13.05;;;6.40;48.50;;;;;;5034927;28;20022;-21
2022/03/12 01:38:53;;;;;;;24.45;13.85;;;6.40;48.80;;;;;;5035623;28;20064;-23
2022/03/12 01:41:33;;;;;;;23.38;12.77;;;6.40;48.50;;;;;;5034969;28;20060;-22
2022/03/12 01:44:02;;;;;;;28.90;13.98;;;6.40;48.40;;;;;;5035009;28;20034;-20
2022/03/12 01:46:43;;;;;;;28.02;16.00;;;6.40;48.20;;;;;;5034754;28;20022;-21
2022/03/12 01:49:15;;;;;;;28.13;14.63;;;6.30;48.20;;;;;;5035300;28;20034;-21
2022/03/12 01:51:44;;;;;;;26.33;15.85;;;6.30;48.20;;;;;;5034972;28;20025;-21
2022/03/12 01:54:11;;;;;;;28.05;15.65;;;6.30;48.40;;;;;;5034855;28;20489;-21
2022/03/12 01:56:38;;;;;;;28.63;15.45;;;6.20;48.20;;;;;;5035050;28;20148;-21
2022/03/12 01:59:05;;;;;;;26.08;14.95;;;6.20;48.20;;;;;;5035062;28;20033;-21
2022/03/12 02:01:32;;;;;;;25.08;14.18;;;6.10;47.50;;;;;;5035003;28;20052;-23
2022/03/12 02:04:00;;;;;;;24.65;13.35;;;6.10;47.70;;;;;;5034628;28;20389;-21
2022/03/12 02:06:27;;;;;;;22.27;12.82;;;6.10;47.90;;;;;;5034306;28;20042;-21
2022/03/12 02:08:57;;;;;;;23.48;12.95;;;6.10;47.60;;;;;;5034866;28;20064;-21
2022/03/12 02:11:28;;;;;;;24.92;13.68;;;6.10;47.50;;;;;;5034456;28;20547;-20
2022/03/12 02:14:02;;;;;;;19.48;11.02;;;6.00;47.70;;;;;;5034822;28;20055;-21
2022/03/12 02:16:29;;;;;;;25.70;14.18;;;6.00;47.80;;;;;;5034663;28;20026;-23
2022/03/12 02:18:55;;;;;;;22.50;13.15;;;6.00;48.00;;;;;;5034140;28;20041;-21
2022/03/12 02:21:41;;;;;;;21.92;11.02;;;6.00;47.60;;;;;;5034678;28;20026;-23
2022/03/12 02:24:10;;;;;;;20.15;12.07;;;5.90;47.40;;;;;;5034620;28;20025;-22
2022/03/12 02:26:38;;;;;;;21.63;11.63;;;5.90;47.30;;;;;;5033908;28;20040;-21
2022/03/12 02:29:09;;;;;;;20.48;10.93;;;5.90;47.40;;;;;;5034160;28;20489;-21
2022/03/12 02:31:36;;;;;;;22.13;11.82;;;5.90;47.10;;;;;;5034449;28;20105;-21
2022/03/12 02:34:06;;;;;;;21.48;11.93;;;5.90;47.30;;;;;;5033889;28;20539;-21
2022/03/12 02:36:32;;;;;;;17.75;10.45;;;5.90;47.30;;;;;;5033799;28;20037;-21
2022/03/12 02:39:01;;;;;;;25.15;13.00;;;5.90;47.30;;;;;;5034274;28;20025;-22
2022/03/12 02:41:27;;;;;;;18.08;10.73;;;5.80;47.00;;;;;;5034126;28;20052;-23
2022/03/12 02:43:53;;;;;;;16.65;10.18;;;5.80;47.00;;;;;;5034173;28;20385;-21
2022/03/12 02:46:19;;;;;;;19.65;10.18;;;5.80;47.10;;;;;;5033600;28;20087;-23
2022/03/12 02:48:52;;;;;;;21.92;13.00;;;5.80;47.00;;;;;;5033792;28;20029;-21
2022/03/12 02:51:26;;;;;;;18.98;10.70;;;5.80;47.30;;;;;;5034110;28;20049;-21
2022/03/12 02:53:56;;;;;;;18.27;10.93;;;5.70;47.40;;;;;;5034061;28;20125;-22
2022/03/12 02:56:26;;;;;;;15.40;9.40;;;5.70;47.60;;;;;;5033823;28;20026;-21
2022/03/12 02:58:53;;;;;;;18.48;10.73;;;5.70;47.40;;;;;;5033641;28;20049;-22
2022/03/12 03:01:19;;;;;;;18.27;11.48;;;5.70;47.30;;;;;;5033572;28;20436;-22
2022/03/12 03:03:46;;;;;;;18.85;11.00;;;5.60;47.40;;;;;;5033504;28;20025;-22
2022/03/12 03:06:14;;;;;;;21.02;11.43;;;5.60;47.10;;;;;;5033561;28;20087;-22
2022/03/12 03:08:44;;;;;;;17.63;9.48;;;5.60;46.80;;;;;;5034307;28;20036;-23
2022/03/12 03:11:14;;;;;;;18.20;10.38;;;5.60;46.70;;;;;;5033487;28;20401;-22
2022/03/12 03:13:45;;;;;;;19.55;11.85;;;5.50;46.50;;;;;;5033414;28;20401;-22
2022/03/12 03:16:21;;;;;;;18.52;10.23;;;5.50;46.10;;;;;;5033565;28;20021;-22
2022/03/12 03:18:53;;;;;;;22.08;12.40;;;5.50;46.20;;;;;;5033396;28;20521;-22
2022/03/12 03:21:24;;;;;;;17.90;10.07;;;5.50;45.90;;;;;;5033963;28;20025;-23
2022/03/12 03:23:51;;;;;;;21.85;11.10;;;5.50;45.80;;;;;;5033566;28;20040;-21
2022/03/12 03:26:43;;;;;;;19.20;10.63;;;5.50;45.60;;;;;;5033756;28;20033;-21
2022/03/12 03:29:10;;;;;;;21.55;11.20;;;5.50;45.70;;;;;;5032154;28;20038;-22
2022/03/12 03:31:36;;;;;;;21.38;11.60;;;5.40;45.50;;;;;;5033498;28;20021;-21
2022/03/12 03:34:03;;;;;;;19.55;11.25;;;5.40;45.80;;;;;;5033318;28;20486;-21
2022/03/12 03:36:30;;;;;;;18.55;10.57;;;5.40;45.40;;;;;;5033192;28;20022;-21
2022/03/12 03:38:56;;;;;;;21.52;11.52;;;5.40;45.20;;;;;;5033354;28;20025;-21
2022/03/12 03:41:22;;;;;;;18.65;10.52;;;5.40;45.20;;;;;;5033339;28;20033;-21
2022/03/12 03:43:48;;;;;;;15.57;10.60;;;5.40;45.10;;;;;;5033881;28;20032;-21
2022/03/12 03:46:18;;;;;;;21.05;11.45;;;5.40;45.20;;;;;;5039077;28;20384;-21
2022/03/12 03:48:51;;;;;;;19.83;10.73;;;5.40;45.20;;;;;;5039557;28;20025;-21
2022/03/12 03:51:20;;;;;;;18.60;10.52;;;5.30;45.30;;;;;;5039643;28;20071;-21
2022/03/12 03:53:46;;;;;;;17.60;10.77;;;5.30;44.80;;;;;;5039736;28;20025;-21
2022/03/12 03:56:12;;;;;;;17.02;10.00;;;5.30;44.90;;;;;;5039155;28;20018;-21
2022/03/12 03:58:38;;;;;;;20.73;11.25;;;5.30;44.80;;;;;;5038312;28;20028;-21
2022/03/12 04:01:12;;;;;;;20.85;12.48;;;5.20;44.80;;;;;;5039492;28;20026;-21
2022/03/12 04:03:42;;;;;;;18.65;10.43;;;5.20;45.00;;;;;;5039461;28;20029;-21
2022/03/12 04:06:09;;;;;;;22.33;11.82;;;5.20;45.00;;;;;;5039636;28;20056;-21
2022/03/12 04:08:35;;;;;;;18.60;10.93;;;5.20;45.00;;;;;;5039260;28;20026;-21
2022/03/12 04:11:05;;;;;;;18.08;10.57;;;5.20;44.90;;;;;;5039276;28;20031;-21
2022/03/12 04:13:32;;;;;;;20.27;10.45;;;5.10;44.80;;;;;;5039431;28;20028;-22
2022/03/12 04:16:00;;;;;;;20.77;11.63;;;5.10;44.70;;;;;;5039693;28;20037;-21
2022/03/12 04:18:26;;;;;;;21.50;12.13;;;5.10;44.60;;;;;;5039130;28;20049;-22
2022/03/12 04:20:53;;;;;;;21.85;11.02;;;5.10;44.50;;;;;;5039171;28;20132;-21
2022/03/12 04:23:25;;;;;;;20.33;11.88;;;5.10;44.70;;;;;;5039242;28;20033;-21
2022/03/12 04:25:55;;;;;;;18.85;10.57;;;5.00;44.40;;;;;;5039477;28;20056;-20
2022/03/12 04:28:23;;;;;;;18.60;10.45;;;5.00;44.70;;;;;;5039105;28;20029;-21
2022/03/12 04:30:50;;;;;;;17.95;10.15;;;5.00;44.90;;;;;;5039697;28;20021;-21
2022/03/12 04:33:21;;;;;;;22.55;11.63;;;4.90;44.80;;;;;;5039643;28;20055;-21
2022/03/12 04:35:50;;;;;;;21.80;12.13;;;4.90;44.70;;;;;;5039253;28;20405;-22
2022/03/12 04:38:17;;;;;;;23.15;11.32;;;4.90;44.20;;;;;;5038974;28;20052;-22
2022/03/12 04:40:44;;;;;;;21.13;12.13;;;4.90;44.60;;;;;;5039146;28;20079;-21
2022/03/12 04:43:12;;;;;;;21.45;11.85;;;4.80;44.40;;;;;;5039069;28;20029;-21
2022/03/12 04:45:43;;;;;;;19.20;10.02;;;4.80;44.30;;;;;;5039434;28;20130;-21
2022/03/12 04:48:17;;;;;;;17.38;9.57;;;4.80;44.40;;;;;;5039067;28;20516;-21
2022/03/12 04:50:43;;;;;;;16.98;8.73;;;4.80;44.40;;;;;;5039101;28;20032;-22
2022/03/12 04:53:09;;;;;;;17.52;9.65;;;4.80;44.30;;;;;;5039230;28;20025;-21
2022/03/12 04:55:37;;;;;;;17.70;9.75;;;4.80;44.20;;;;;;5038568;28;20503;-21
2022/03/12 04:58:07;;;;;;;18.92;10.50;;;4.80;44.20;;;;;;5036170;28;20018;-22
2022/03/12 05:00:36;;;;;;;19.02;10.70;;;4.70;44.20;;;;;;5035758;28;20038;-21
2022/03/12 05:03:14;;;;;;;16.83;9.65;;;4.70;44.10;;;;;;5035826;28;20485;-21
2022/03/12 05:05:46;;;;;;;15.70;9.18;;;4.70;44.20;;;;;;5035813;28;20036;-22
2022/03/12 05:08:17;;;;;;;16.55;8.88;;;4.70;44.30;;;;;;5035425;28;20029;-21
2022/03/12 05:10:44;;;;;;;17.98;9.70;;;4.70;44.30;;;;;;5035623;28;20025;-22
2022/03/12 05:13:12;;;;;;;16.55;9.13;;;4.60;44.20;;;;;;5035615;28;20018;-23
2022/03/12 05:15:39;;;;;;;17.77;10.25;;;4.70;44.20;;;;;;5035567;28;20034;-22
2022/03/12 05:18:08;;;;;;;18.80;10.93;;;4.60;44.30;;;;;;5035788;28;20045;-22
2022/03/12 05:20:36;;;;;;;19.35;10.63;;;4.70;44.40;;;;;;5035225;28;20053;-21
2022/03/12 05:23:06;;;;;;;16.63;9.63;;;4.60;44.40;;;;;;5035433;28;20485;-23
2022/03/12 05:25:40;;;;;;;16.40;9.60;;;4.60;44.50;;;;;;5035364;28;20029;-22
2022/03/12 05:28:06;;;;;;;18.25;9.52;;;4.60;44.50;;;;;;5035665;28;20116;-21
2022/03/12 05:30:32;;;;;;;17.13;10.80;;;4.60;44.50;;;;;;5035631;28;20064;-21
2022/03/12 05:32:59;;;;;;;18.42;10.02;;;4.60;44.60;;;;;;5035487;28;20060;-23
2022/03/12 05:35:25;;;;;;;16.77;9.57;;;4.60;44.60;;;;;;5035538;28;20542;-21
2022/03/12 05:37:53;;;;;;;16.52;9.57;;;4.60;44.70;;;;;;5035418;28;20018;-21
2022/03/12 05:40:26;;;;;;;20.73;11.63;;;4.60;44.70;;;;;;5035107;28;20040;-21
2022/03/12 05:42:55;;;;;;;13.30;7.93;;;4.60;44.80;;;;;;5035142;28;20489;-21
2022/03/12 05:45:23;;;;;;;13.70;7.63;;;4.60;44.70;;;;;;5035341;28;20040;-23
2022/03/12 05:47:50;;;;;;;17.38;9.25;;;4.60;44.70;;;;;;5034923;28;20029;-21
2022/03/12 05:50:18;;;;;;;17.58;9.32;;;4.60;44.80;;;;;;5034779;28;20067;-21
2022/03/12 05:52:49;;;;;;;15.13;9.18;;;4.60;45.10;;;;;;5034902;28;20082;-21
2022/03/12 05:55:21;;;;;;;17.35;9.25;;;4.60;44.90;;;;;;5034740;28;20504;-23
2022/03/12 05:57:48;;;;;;;18.08;10.32;;;4.60;44.90;;;;;;5034734;28;20501;-21
2022/03/12 06:00:16;;;;;;;18.55;9.95;;;4.60;45.00;;;;;;5034540;28;20069;-21
2022/03/12 06:02:49;;;;;;;20.45;11.15;;;4.60;45.10;;;;;;5035333;28;20521;-21
2022/03/12 06:05:21;;;;;;;31.42;15.50;;;4.60;45.10;;;;;;5035019;28;20021;-21
2022/03/12 06:07:49;;;;;;;32.72;16.33;;;4.50;45.00;;;;;;5033998;28;20091;-21
2022/03/12 06:10:30;;;;;;;23.70;11.85;;;4.60;44.80;;;;;;5034503;28;20029;-21
2022/03/12 06:12:58;;;;;;;22.42;12.05;;;4.60;44.70;;;;;;5035454;28;20112;-21
2022/03/12 06:15:28;;;;;;;20.30;12.23;;;4.60;44.90;;;;;;5034463;28;20393;-20
2022/03/12 06:17:54;;;;;;;19.17;9.70;;;4.60;44.70;;;;;;5034429;28;20249;-21
2022/03/12 06:20:21;;;;;;;17.42;9.32;;;4.60;44.40;;;;;;5034081;28;20045;-20
2022/03/12 06:22:49;;;;;;;17.52;10.25;;;4.80;44.40;;;;;;5034940;28;20100;-20
2022/03/12 06:25:19;;;;;;;18.75;10.23;;;4.80;44.20;;;;;;5034647;28;20025;-21
2022/03/12 06:27:54;;;;;;;19.20;11.10;;;4.90;44.10;;;;;;5034155;28;20055;-21
2022/03/12 06:30:23;;;;;;;19.25;10.73;;;4.90;44.00;;;;;;5034047;28;20026;-21
2022/03/12 06:32:49;;;;;;;19.73;11.40;;;4.90;43.60;;;;;;5034792;28;20033;-21
2022/03/12 06:35:16;;;;;;;20.40;11.05;;;5.00;43.40;;;;;;5034069;28;20026;-21
2022/03/12 06:37:43;;;;;;;16.38;9.80;;;5.00;43.60;;;;;;5034105;28;20100;-21
2022/03/12 06:40:14;;;;;;;20.85;10.77;;;5.00;43.40;;;;;;5033954;28;20049;-21
2022/03/12 06:42:40;;;;;;;18.30;9.90;;;5.10;43.10;;;;;;5034189;28;20112;-22
2022/03/12 06:45:10;;;;;;;14.60;8.38;;;5.10;42.40;;;;;;5034222;28;20112;-23
2022/03/12 06:47:38;;;;;;;16.65;9.65;;;5.10;42.80;;;;;;5033831;28;20032;-23
2022/03/12 06:50:08;;;;;;;16.27;8.45;;;5.20;42.40;;;;;;5034158;28;20033;-21
2022/03/12 06:52:45;;;;;;;15.32;9.23;;;5.30;42.50;;;;;;5033924;28;20029;-21
2022/03/12 06:55:11;;;;;;;16.85;9.85;;;5.40;42.50;;;;;;5033947;28;20025;-22
2022/03/12 06:57:38;;;;;;;20.90;11.05;;;5.40;42.60;;;;;;5033670;28;20024;-22
2022/03/12 07:00:06;;;;;;;15.77;8.75;;;5.50;42.50;;;;;;5033543;28;20037;-20
2022/03/12 07:02:32;;;;;;;15.77;8.45;;;5.60;42.20;;;;;;5033424;28;20082;-20
2022/03/12 07:04:57;;;;;;;19.50;11.50;;;5.70;42.30;;;;;;5033873;28;20477;-21
2022/03/12 07:07:23;;;;;;;18.08;9.52;;;5.80;42.10;;;;;;5033471;28;20505;-20
2022/03/12 07:09:49;;;;;;;16.05;9.15;;;5.90;42.00;;;;;;5033682;28;20025;-20
2022/03/12 07:12:16;;;;;;;16.60;10.52;;;6.00;42.20;;;;;;5032072;28;20497;-21
2022/03/12 07:14:42;;;;;;;17.10;10.45;;;6.00;41.60;;;;;;5033664;28;20489;-23
2022/03/12 07:17:08;;;;;;;22.25;10.75;;;6.20;41.40;;;;;;5033355;28;20032;-23
2022/03/12 07:19:33;;;;;;;16.50;9.27;;;6.20;41.10;;;;;;5032328;28;20049;-21
2022/03/12 07:21:59;;;;;;;19.45;10.05;;;6.30;40.60;;;;;;5033648;28;20109;-23
2022/03/12 07:24:25;;;;;;;17.77;9.20;;;6.40;39.80;;;;;;5033049;28;20052;-21
2022/03/12 07:26:51;;;;;;;17.50;9.55;;;6.40;39.90;;;;;;5033431;28;20384;-21
2022/03/12 07:29:17;;;;;;;15.65;8.55;;;6.50;40.00;;;;;;5033591;28;20556;-21
2022/03/12 07:31:43;;;;;;;17.48;9.98;;;6.60;39.50;;;;;;5033544;28;20385;-21
2022/03/12 07:34:09;;;;;;;14.43;9.10;;;6.70;39.30;;;;;;5033140;28;20477;-23
2022/03/12 07:36:35;;;;;;;15.85;9.30;;;6.80;39.00;;;;;;5033560;28;20055;-22
2022/03/12 07:39:03;;;;;;;14.75;8.05;;;6.90;39.30;;;;;;5033390;28;20424;-21
2022/03/12 07:41:30;;;;;;;16.00;8.82;;;6.90;39.00;;;;;;5033031;28;20068;-22
2022/03/12 07:43:56;;;;;;;14.68;8.85;;;7.00;39.20;;;;;;5033022;28;20029;-22
2022/03/12 07:46:22;;;;;;;18.60;9.35;;;7.10;38.90;;;;;;5033351;28;20029;-21
2022/03/12 07:48:48;;;;;;;18.35;8.88;;;7.20;38.60;;;;;;5033249;28;20034;-21
2022/03/12 07:51:15;;;;;;;16.23;8.93;;;7.30;38.10;;;;;;5033279;28;20033;-23
2022/03/12 07:53:42;;;;;;;15.70;8.95;;;7.40;38.10;;;;;;5033273;28;20018;-23
2022/03/12 07:56:09;;;;;;;15.95;8.23;;;7.50;37.30;;;;;;5033166;28;20033;-21
2022/03/12 07:58:37;;;;;;;16.60;8.57;;;7.60;37.60;;;;;;5032695;28;20499;-21
2022/03/12 08:01:05;;;;;;;18.60;8.82;;;7.70;37.20;;;;;;5033175;28;20159;-23
2022/03/12 08:03:35;;;;;;;17.23;9.85;;;7.80;37.20;;;;;;5033213;28;20150;-21
2022/03/12 08:06:02;;;;;;;16.55;9.65;;;7.90;36.20;;;;;;5032832;28;20496;-20
2022/03/12 08:08:28;;;;;;;16.02;9.43;;;7.90;36.70;;;;;;5032611;28;20037;-22
2022/03/12 08:13:39;;;;;;;15.27;8.60;;;8.20;36.80;;;;;;5033132;28;20381;-21
2022/03/12 08:16:05;;;;;;;18.73;9.90;;;8.30;36.30;;;;;;5032740;28;20036;-21
2022/03/12 08:18:31;;;;;;;15.32;9.02;;;8.50;36.80;;;;;;5032851;28;20025;-20
2022/03/12 08:20:57;;;;;;;14.70;8.95;;;8.60;36.40;;;;;;5032569;28;20049;-21
2022/03/12 08:23:23;;;;;;;14.75;8.63;;;8.80;36.00;;;;;;5032686;28;20030;-20
2022/03/12 08:25:49;;;;;;;15.10;8.50;;;8.90;36.00;;;;;;5032736;28;20030;-21
2022/03/12 08:28:17;;;;;;;13.35;7.93;;;9.10;35.90;;;;;;5032492;28;20397;-20
2022/03/12 08:30:43;;;;;;;15.82;9.75;;;9.30;35.50;;;;;;5033601;28;20398;-21
2022/03/12 08:33:10;;;;;;;15.52;8.32;;;9.40;34.30;;;;;;5036651;28;20025;-21
2022/03/12 08:35:36;;;;;;;17.92;10.32;;;9.60;35.30;;;;;;5036339;28;20390;-21
2022/03/12 08:38:02;;;;;;;14.00;8.52;;;9.70;34.20;;;;;;5036474;28;20036;-21
2022/03/12 08:40:29;;;;;;;16.77;10.10;;;9.80;34.60;;;;;;5035967;28;20030;-21
2022/03/12 08:42:56;;;;;;;16.73;9.98;;;9.90;33.80;;;;;;5036851;28;20014;-20
2022/03/12 08:45:23;;;;;;;16.98;10.15;;;10.00;33.80;;;;;;5036346;28;20371;-20
2022/03/12 08:47:49;;;;;;;16.65;10.18;;;10.10;33.00;;;;;;5036001;28;20635;-20
2022/03/12 08:50:15;;;;;;;14.68;9.10;;;10.20;33.20;;;;;;5036103;28;20056;-21
2022/03/12 08:52:42;;;;;;;15.05;9.32;;;10.30;34.00;;;;;;5036031;28;20033;-21
2022/03/12 08:55:10;;;;;;;13.07;8.45;;;10.40;33.90;;;;;;5036661;28;20038;-21
2022/03/12 08:57:37;;;;;;;15.70;9.52;;;10.50;33.30;;;;;;5036189;28;20104;-21
2022/03/12 09:00:08;;;;;;;15.90;9.40;;;10.60;32.90;;;;;;5035831;28;20588;-22
2022/03/12 09:02:36;;;;;;;14.38;8.30;;;10.80;32.60;;;;;;5035566;28;20079;-21
2022/03/12 09:05:08;;;;;;;15.80;9.60;;;10.90;33.10;;;;;;5036130;28;20033;-21
2022/03/12 09:07:35;;;;;;;15.07;9.65;;;11.00;32.60;;;;;;5035761;28;20045;-21
2022/03/12 09:10:05;;;;;;;15.48;9.50;;;11.20;32.50;;;;;;5035693;28;20052;-21
2022/03/12 09:12:32;;;;;;;15.23;8.93;;;11.30;32.10;;;;;;5036040;28;20116;-21
2022/03/12 09:14:58;;;;;;;14.02;9.00;;;11.40;31.90;;;;;;5036216;28;20018;-21
2022/03/12 09:17:23;;;;;;;13.55;8.35;;;11.50;30.80;;;;;;5035576;28;20515;-21
2022/03/12 09:19:49;;;;;;;13.05;7.85;;;11.70;31.70;;;;;;5035524;28;20045;-21
2022/03/12 09:22:15;;;;;;;15.05;8.63;;;11.90;31.50;;;;;;5035302;28;20075;-21
2022/03/12 09:24:41;;;;;;;13.88;8.13;;;11.90;31.20;;;;;;5035791;28;20022;-21
2022/03/12 09:27:08;;;;;;;12.00;7.63;;;12.00;30.80;;;;;;5035174;28;20033;-20
2022/03/12 09:29:35;;;;;;;14.60;8.07;;;12.10;30.60;;;;;;5035369;28;20389;-20
2022/03/12 09:32:05;;;;;;;13.40;8.00;;;12.20;29.90;;;;;;5035306;28;20041;-21
2022/03/12 09:34:33;;;;;;;13.05;7.78;;;12.30;30.20;;;;;;5034953;28;20056;-20
2022/03/12 09:36:59;;;;;;;13.82;7.90;;;12.50;30.40;;;;;;5035526;28;20033;-20
2022/03/12 09:39:26;;;;;;;13.10;7.22;;;12.60;30.20;;;;;;5035488;28;20445;-20
2022/03/12 09:41:52;;;;;;;11.40;7.80;;;12.80;30.00;;;;;;5034484;28;20033;-22
2022/03/12 09:44:18;;;;;;;14.07;8.93;;;12.90;28.30;;;;;;5034708;28;20036;-21
2022/03/12 09:46:44;;;;;;;13.75;7.50;;;12.90;28.50;;;;;;5035266;28;20037;-20
2022/03/12 09:49:11;;;;;;;17.90;9.50;;;13.10;29.10;;;;;;5035058;28;20388;-21
2022/03/12 09:51:38;;;;;;;11.55;7.70;;;13.20;29.10;;;;;;5035261;28;20026;-20
2022/03/12 09:54:05;;;;;;;11.07;7.28;;;13.30;28.90;;;;;;5035042;28;20033;-20
2022/03/12 09:56:31;;;;;;;11.70;7.57;;;13.50;29.40;;;;;;5034780;28;20025;-20
2022/03/12 09:58:58;;;;;;;12.23;8.52;;;13.70;29.30;;;;;;5035242;28;20401;-21
2022/03/12 10:01:24;;;;;;;14.65;9.40;;;13.90;29.00;;;;;;5033560;28;20033;-22
2022/03/12 10:03:50;;;;;;;13.35;8.90;;;14.00;28.90;;;;;;5034950;28;20017;-22
2022/03/12 10:06:16;;;;;;;14.65;8.60;;;14.20;28.50;;;;;;5034578;28;20105;-21
2022/03/12 10:08:43;;;;;;;15.20;9.32;;;14.30;29.20;;;;;;5034438;28;20473;-21
2022/03/12 10:11:13;;;;;;;14.15;8.30;;;14.50;28.20;;;;;;5034446;28;20503;-21
2022/03/12 10:13:39;;;;;;;14.07;9.25;;;14.60;28.50;;;;;;5035157;28;20029;-21
2022/03/12 10:16:07;;;;;;;15.13;8.93;;;14.60;28.40;;;;;;5034483;28;20025;-21
2022/03/12 10:18:33;;;;;;;17.10;9.77;;;14.70;28.00;;;;;;5034443;28;20057;-24
2022/03/12 10:21:00;;;;;;;14.23;8.85;;;14.90;28.50;;;;;;5034430;28;20425;-21
2022/03/12 10:23:27;;;;;;;15.27;9.20;;;15.00;28.20;;;;;;5034332;28;20029;-21
2022/03/12 10:25:53;;;;;;;16.98;10.43;;;15.10;27.60;;;;;;5034485;28;20026;-21
2022/03/12 10:28:19;;;;;;;14.18;9.15;;;15.20;28.00;;;;;;5034178;28;20033;-21
2022/03/12 10:30:45;;;;;;;15.07;8.30;;;15.40;28.10;;;;;;5034591;28;20099;-22
2022/03/12 10:33:22;;;;;;;16.10;9.75;;;15.60;28.50;;;;;;5034466;28;20428;-22
2022/03/12 10:35:47;;;;;;;15.63;10.30;;;15.70;27.70;;;;;;5034143;28;20386;-22
2022/03/12 10:38:14;;;;;;;15.18;10.35;;;15.70;27.00;;;;;;5033817;28;20017;-21
2022/03/12 10:40:41;;;;;;;14.57;8.85;;;15.90;27.00;;;;;;5033855;28;20036;-21
2022/03/12 10:43:15;;;;;;;12.95;8.63;;;15.90;27.50;;;;;;5034250;28;20033;-21
2022/03/12 10:45:46;;;;;;;15.70;9.40;;;16.10;27.50;;;;;;5034302;28;20013;-21
2022/03/12 10:48:14;;;;;;;12.00;7.90;;;16.30;27.20;;;;;;5033672;28;20105;-22
2022/03/12 10:50:43;;;;;;;16.15;10.20;;;16.50;27.40;;;;;;5033821;28;20465;-20
2022/03/12 10:53:10;;;;;;;14.25;8.82;;;16.60;27.20;;;;;;5033679;28;20041;-20
2022/03/12 10:55:41;;;;;;;16.08;9.77;;;16.80;27.30;;;;;;5033941;28;20025;-21
2022/03/12 10:58:26;;;;;;;15.98;10.18;;;17.00;27.10;;;;;;5033958;28;20091;-21
2022/03/12 11:00:54;;;;;;;14.85;9.93;;;17.20;26.80;;;;;;5034437;28;20067;-20
2022/03/12 11:03:31;;;;;;;14.70;9.70;;;17.40;26.60;;;;;;5033914;28;20033;-21
2022/03/12 11:05:59;;;;;;;13.13;8.38;;;17.50;26.80;;;;;;5033638;28;20033;-21
2022/03/12 11:08:29;;;;;;;13.90;8.73;;;17.70;26.80;;;;;;5033539;28;20025;-21
2022/03/12 11:11:11;;;;;;;15.25;8.98;;;17.90;26.30;;;;;;5034062;28;20033;-20
2022/03/12 11:13:44;;;;;;;16.45;9.88;;;18.10;26.70;;;;;;5033542;28;20374;-21
2022/03/12 11:16:24;;;;;;;13.57;8.02;;;18.30;26.20;;;;;;5033616;28;20017;-21
2022/03/12 11:18:53;;;;;;;15.30;10.23;;;18.40;26.20;;;;;;5033191;28;20044;-21
2022/03/12 11:21:28;;;;;;;13.27;8.77;;;18.60;26.20;;;;;;5033617;28;20053;-21
2022/03/12 11:23:55;;;;;;;15.43;10.20;;;18.70;26.00;;;;;;5033167;28;20048;-21
2022/03/12 11:26:24;;;;;;;16.00;10.93;;;18.90;26.00;;;;;;5033199;28;20033;-21
2022/03/12 11:28:56;;;;;;;15.20;10.85;;;18.90;25.40;;;;;;5033473;28;20168;-21
2022/03/12 11:31:48;;;;;;;14.15;9.02;;;18.90;25.70;;;;;;5033829;28;20167;-21
2022/03/12 11:34:19;;;;;;;16.73;11.30;;;19.10;25.30;;;;;;5033358;28;20580;-21
2022/03/12 11:37:17;;;;;;;15.48;9.88;;;19.30;25.40;;;;;;5033209;28;20067;-20
2022/03/12 11:39:45;;;;;;;15.82;10.15;;;19.30;22.70;;;;;;5033349;28;20029;-21
2022/03/12 11:42:17;;;;;;;14.70;10.00;;;19.40;25.30;;;;;;5033304;28;20083;-22
2022/03/12 11:44:47;;;;;;;16.58;11.10;;;19.50;25.40;;;;;;5033326;28;20044;-22
2022/03/12 11:47:18;;;;;;;14.10;9.93;;;19.60;25.10;;;;;;5032987;28;20374;-21
2022/03/12 11:49:46;;;;;;;16.60;11.13;;;19.70;25.10;;;;;;5033295;28;20022;-21
2022/03/12 11:52:12;;;;;;;12.63;8.38;;;19.80;24.80;;;;;;5032758;28;20385;-21
2022/03/12 11:54:43;;;;;;;14.35;8.57;;;19.90;25.10;;;;;;5033310;28;20021;-21
2022/03/12 11:57:32;;;;;;;12.25;8.20;;;20.10;25.20;;;;;;5033694;28;20088;-21
2022/03/12 11:59:59;;;;;;;16.98;10.30;;;20.40;23.70;;;;;;5032945;28;20519;-21
2022/03/12 12:02:26;;;;;;;15.73;10.25;;;20.60;24.80;;;;;;5031466;28;20191;-21
2022/03/12 12:04:53;;;;;;;14.45;9.48;;;20.80;24.80;;;;;;5032875;28;20389;-20
2022/03/12 12:07:23;;;;;;;14.68;9.30;;;21.00;24.50;;;;;;5036443;28;20037;-21
2022/03/12 12:09:50;;;;;;;13.07;9.05;;;21.10;24.50;;;;;;5037181;28;20021;-21
2022/03/12 12:12:17;;;;;;;15.25;9.77;;;21.20;24.50;;;;;;5036818;28;20033;-21
2022/03/12 12:14:44;;;;;;;14.82;9.80;;;21.30;24.30;;;;;;5036783;28;20079;-21
2022/03/12 12:17:11;;;;;;;11.85;8.48;;;21.40;24.20;;;;;;5037217;28;20021;-21
2022/03/12 12:19:37;;;;;;;12.27;8.65;;;21.50;24.20;;;;;;5037128;28;20057;-21
2022/03/12 12:22:06;;;;;;;14.88;9.25;;;21.50;23.80;;;;;;5036603;28;20034;-21
2022/03/12 12:24:44;;;;;;;14.60;9.52;;;21.50;23.50;;;;;;5036742;28;20050;-21
2022/03/12 12:27:13;;;;;;;14.02;9.45;;;21.50;22.30;;;;;;5037018;28;20034;-21
2022/03/12 12:29:46;;;;;;;13.82;10.00;;;21.50;23.20;;;;;;5036448;28;20412;-21
2022/03/12 12:32:17;;;;;;;11.65;8.98;;;21.40;23.20;;;;;;5036329;28;20055;-22
2022/03/12 12:35:06;;;;;;;12.68;9.43;;;21.40;23.00;;;;;;5035623;28;20030;-21
2022/03/12 12:37:54;;;;;;;11.30;8.27;;;21.40;21.30;;;;;;5035934;28;20041;-22
2022/03/12 12:40:21;;;;;;;10.85;8.10;;;21.60;22.00;;;;;;5036342;28;20052;-21
2022/03/12 12:42:51;;;;;;;10.85;7.22;;;21.80;23.10;;;;;;5036275;28;20037;-22
2022/03/12 12:45:22;;;;;;;14.13;8.90;;;22.00;23.30;;;;;;5036507;28;20018;-21
2022/03/12 12:48:11;;;;;;;12.63;9.15;;;22.30;22.50;;;;;;5036398;28;20041;-21